createdAt,value
2018-03-28T00:00:53.193Z,21.65
2018-03-28T00:03:21.468Z,22.33
2018-03-28T00:05:49.707Z,22.30
2018-03-28T00:08:18.845Z,22.25
2018-03-28T00:10:47.082Z,23.00
2018-03-28T00:13:15.325Z,22.23
2018-03-28T00:15:43.655Z,22.83
2018-03-28T00:18:11.932Z,23.87
2018-03-28T00:20:40.181Z,22.92
2018-03-28T00:23:09.216Z,23.38
2018-03-28T00:25:37.475Z,22.73
2018-03-28T00:28:05.708Z,23.48
2018-03-28T00:30:34.749Z,24.08
2018-03-28T00:33:03.018Z,24.10
2018-03-28T00:35:31.259Z,24.52
2018-03-28T00:38:00.286Z,23.35
2018-03-28T00:40:28.528Z,23.17
2018-03-28T00:42:57.538Z,24.12
2018-03-28T00:45:26.674Z,24.10
2018-03-28T00:47:54.920Z,23.62
2018-03-28T00:50:23.173Z,22.85
2018-03-28T00:52:51.413Z,23.85
2018-03-28T00:55:19.661Z,22.85
2018-03-28T00:57:47.929Z,22.95
2018-03-28T01:00:16.202Z,24.23
2018-03-28T01:02:44.441Z,25.00
2018-03-28T01:05:13.468Z,23.58
2018-03-28T01:07:41.740Z,23.77
2018-03-28T01:10:09.988Z,23.92
2018-03-28T01:12:39.011Z,23.83
2018-03-28T01:15:07.379Z,24.77
2018-03-28T01:17:35.612Z,23.95
2018-03-28T01:20:03.884Z,24.35
2018-03-28T01:22:33.623Z,24.67
2018-03-28T01:25:02.650Z,24.20
2018-03-28T01:27:30.888Z,24.58
2018-03-28T01:29:59.193Z,23.48
2018-03-28T01:32:27.432Z,24.35
2018-03-28T01:34:56.461Z,23.87
2018-03-28T01:37:24.732Z,23.77
2018-03-28T01:39:53.104Z,23.00
2018-03-28T01:42:21.348Z,24.05
2018-03-28T01:44:50.381Z,23.70
2018-03-28T01:47:18.629Z,23.60
2018-03-28T01:49:46.941Z,23.08
2018-03-28T01:52:15.209Z,24.90
2018-03-28T01:54:43.439Z,23.92
2018-03-28T01:57:12.450Z,23.95
2018-03-28T01:59:40.701Z,24.75
2018-03-28T02:02:08.950Z,24.77
2018-03-28T02:04:37.201Z,25.37
2018-03-28T02:07:05.445Z,23.17
2018-03-28T02:09:34.451Z,26.30
2018-03-28T02:12:02.697Z,24.27
2018-03-28T02:14:31.734Z,24.63
2018-03-28T02:17:00.030Z,26.05
2018-03-28T02:19:28.281Z,24.55
2018-03-28T02:21:56.562Z,24.80
2018-03-28T02:24:24.840Z,23.58
2018-03-28T02:26:53.114Z,25.50
2018-03-28T02:29:21.363Z,25.48
2018-03-28T02:31:49.604Z,26.00
2018-03-28T02:34:17.846Z,26.00
2018-03-28T02:36:46.088Z,24.02
2018-03-28T02:39:14.312Z,23.95
2018-03-28T02:41:42.559Z,24.75
2018-03-28T02:44:10.792Z,23.77
2018-03-28T02:46:39.820Z,23.58
2018-03-28T02:49:08.055Z,25.40
2018-03-28T02:51:37.088Z,24.95
2018-03-28T02:54:05.376Z,25.42
2018-03-28T02:56:33.614Z,23.27
2018-03-28T02:59:01.862Z,24.90
2018-03-28T03:01:30.194Z,26.15
2018-03-28T03:03:58.476Z,25.62
2018-03-28T03:06:26.722Z,25.75
2018-03-28T03:08:54.960Z,25.45
2018-03-28T03:11:23.201Z,26.55
2018-03-28T03:13:51.474Z,25.05
2018-03-28T03:16:19.749Z,27.70
2018-03-28T03:18:47.983Z,26.35
2018-03-28T03:21:17.009Z,26.37
2018-03-28T03:23:45.279Z,26.75
2018-03-28T03:26:13.660Z,27.70
2018-03-28T03:28:41.901Z,26.67
2018-03-28T03:31:10.913Z,26.87
2018-03-28T03:33:39.144Z,27.48
2018-03-28T03:36:07.475Z,28.27
2018-03-28T03:38:35.723Z,27.70
2018-03-28T03:41:04.753Z,29.92
2018-03-28T03:43:32.996Z,27.10
2018-03-28T03:46:01.996Z,29.45
2018-03-28T03:48:30.301Z,27.30
2018-03-28T03:50:58.732Z,28.15
2018-03-28T03:53:26.944Z,27.05
2018-03-28T03:55:55.220Z,28.92
2018-03-28T03:58:23.473Z,26.67
2018-03-28T04:00:51.783Z,24.70
2018-03-28T04:03:20.053Z,25.70
2018-03-28T04:05:48.290Z,25.23
2018-03-28T04:08:17.304Z,25.15
2018-03-28T04:10:45.549Z,26.12
2018-03-28T04:13:14.547Z,25.88
2018-03-28T04:15:43.581Z,26.85
2018-03-28T04:18:11.852Z,24.58
2018-03-28T04:20:40.106Z,25.67
2018-03-28T04:23:08.405Z,28.00
2018-03-28T04:25:36.697Z,26.15
2018-03-28T04:28:04.927Z,26.67
2018-03-28T04:30:33.172Z,28.17
2018-03-28T04:33:01.506Z,26.90
2018-03-28T04:35:29.753Z,27.70
2018-03-28T04:37:58.028Z,26.80
2018-03-28T04:40:26.333Z,27.65
2018-03-28T04:42:54.715Z,30.00
2018-03-28T04:45:23.031Z,29.42
2018-03-28T04:47:51.253Z,28.83
2018-03-28T04:50:19.554Z,28.92
2018-03-28T04:52:47.812Z,29.48
2018-03-28T04:55:16.089Z,28.48
2018-03-28T04:57:44.341Z,29.00
2018-03-28T05:00:12.784Z,26.83
2018-03-28T05:02:41.001Z,26.37
2018-03-28T05:05:09.284Z,27.37
2018-03-28T05:07:37.565Z,24.52
2018-03-28T05:10:05.936Z,25.73
2018-03-28T05:12:34.211Z,24.67
2018-03-28T05:15:02.483Z,24.67
2018-03-28T05:17:31.507Z,27.15
2018-03-28T05:19:59.757Z,28.02
2018-03-28T05:22:28.040Z,25.83
2018-03-28T05:24:57.028Z,26.87
2018-03-28T05:27:25.306Z,26.58
2018-03-28T05:29:53.572Z,26.35
2018-03-28T05:32:21.830Z,28.40
2018-03-28T05:34:50.845Z,28.12
2018-03-28T05:37:19.093Z,28.27
2018-03-28T05:39:48.091Z,29.30
2018-03-28T05:42:16.324Z,28.70
2018-03-28T05:44:44.559Z,27.02
2018-03-28T05:47:12.841Z,25.42
2018-03-28T05:49:41.119Z,27.13
2018-03-28T05:52:09.388Z,24.90
2018-03-28T05:54:37.656Z,25.85
2018-03-28T05:57:05.931Z,25.52
2018-03-28T05:59:34.230Z,25.17
2018-03-28T06:02:02.468Z,24.65
2018-03-28T06:04:30.770Z,26.80
2018-03-28T06:06:59.005Z,26.98
2018-03-28T06:09:28.012Z,25.27
2018-03-28T06:11:56.253Z,26.87
2018-03-28T06:14:24.588Z,27.05
2018-03-28T06:16:52.823Z,25.70
2018-03-28T06:19:21.840Z,26.15
2018-03-28T06:21:50.129Z,26.83
2018-03-28T06:24:18.393Z,26.27
2018-03-28T06:26:46.633Z,28.48
2018-03-28T06:29:15.650Z,29.95
2018-03-28T06:31:43.948Z,28.20
2018-03-28T06:34:12.186Z,27.77
2018-03-28T06:36:41.202Z,26.62
2018-03-28T06:39:09.436Z,28.42
2018-03-28T06:41:38.448Z,28.65
2018-03-28T06:44:07.476Z,28.40
2018-03-28T06:46:35.752Z,28.80
2018-03-28T06:49:04.029Z,29.90
2018-03-28T06:54:15.420Z,30.52
2018-03-28T06:56:43.699Z,28.17
2018-03-28T06:59:11.947Z,27.40
2018-03-28T07:01:40.253Z,26.98
2018-03-28T07:04:08.627Z,25.20
2018-03-28T07:06:36.894Z,26.17
2018-03-28T07:09:05.996Z,26.62
2018-03-28T07:11:34.232Z,24.25
2018-03-28T07:14:03.236Z,25.62
2018-03-28T07:16:31.532Z,24.67
2018-03-28T07:18:59.821Z,24.75
2018-03-28T07:21:28.096Z,30.10
2018-03-28T07:23:56.332Z,29.10
2018-03-28T07:26:25.335Z,30.30
2018-03-28T07:28:53.634Z,29.85
2018-03-28T07:31:21.928Z,30.55
2018-03-28T07:33:50.184Z,29.48
2018-03-28T07:36:18.457Z,28.80
2018-03-28T07:38:46.781Z,27.67
2018-03-28T07:41:15.013Z,28.60
2018-03-28T07:43:43.262Z,28.42
2018-03-28T07:46:11.500Z,28.20
2018-03-28T07:48:39.736Z,27.35
2018-03-28T07:51:08.003Z,27.90
2018-03-28T07:53:36.290Z,28.73
2018-03-28T07:56:04.566Z,28.23
2018-03-28T07:58:32.845Z,28.90
2018-03-28T08:01:01.113Z,30.73
2018-03-28T08:03:29.395Z,30.23
2018-03-28T08:05:57.628Z,30.75
2018-03-28T08:08:26.659Z,29.12
2018-03-28T08:10:54.953Z,31.27
2018-03-28T08:13:23.200Z,32.13
2018-03-28T08:15:51.528Z,31.42
2018-03-28T08:18:19.767Z,33.55
2018-03-28T08:20:48.015Z,33.08
2018-03-28T08:23:16.273Z,33.42
2018-03-28T08:25:45.314Z,33.00
2018-03-28T08:28:13.539Z,32.83
2018-03-28T08:30:42.580Z,33.58
2018-03-28T08:33:10.827Z,33.50
2018-03-28T08:35:39.072Z,32.13
2018-03-28T08:38:08.099Z,31.67
2018-03-28T08:40:36.353Z,32.92
2018-03-28T08:43:05.394Z,32.95
2018-03-28T08:45:33.648Z,34.15
2018-03-28T08:48:01.905Z,34.17
2018-03-28T08:50:30.934Z,32.10
2018-03-28T08:52:59.308Z,34.72
2018-03-28T08:55:27.586Z,35.58
2018-03-28T08:57:55.842Z,33.08
2018-03-28T09:00:24.105Z,33.53
2018-03-28T09:02:53.850Z,31.50
2018-03-28T09:05:22.123Z,31.55
2018-03-28T09:07:50.383Z,30.42
2018-03-28T09:10:18.631Z,30.90
2018-03-28T09:12:47.655Z,30.27
2018-03-28T09:15:15.944Z,30.55
2018-03-28T09:17:44.311Z,30.75
2018-03-28T09:20:12.549Z,28.02
2018-03-28T09:22:42.398Z,28.75
2018-03-28T09:25:10.650Z,27.50
2018-03-28T09:27:38.960Z,27.20
2018-03-28T09:30:07.202Z,25.23
2018-03-28T09:32:35.465Z,25.95
2018-03-28T09:35:04.488Z,26.33
2018-03-28T09:37:32.772Z,23.73
2018-03-28T09:40:01.041Z,23.50
2018-03-28T09:42:29.317Z,23.23
2018-03-28T09:44:57.601Z,23.00
2018-03-28T09:47:25.879Z,23.55
2018-03-28T09:49:54.107Z,24.45
2018-03-28T09:52:23.123Z,28.65
2018-03-28T09:54:51.420Z,28.38
2018-03-28T09:57:19.803Z,28.95
2018-03-28T09:59:48.049Z,30.05
2018-03-28T10:02:16.289Z,28.00
2018-03-28T10:04:49.354Z,27.67
2018-03-28T10:07:17.611Z,29.40
2018-03-28T10:09:45.877Z,31.83
2018-03-28T10:12:14.121Z,30.75
2018-03-28T10:14:43.158Z,31.20
2018-03-28T10:17:11.398Z,30.35
2018-03-28T10:19:39.712Z,32.42
2018-03-28T10:22:07.953Z,32.67
2018-03-28T10:24:36.195Z,32.35
2018-03-28T10:27:04.444Z,31.33
2018-03-28T10:29:32.706Z,32.90
2018-03-28T10:32:00.974Z,32.65
2018-03-28T10:34:29.249Z,32.40
2018-03-28T10:36:57.905Z,30.17
2018-03-28T10:39:26.209Z,31.27
2018-03-28T10:41:54.481Z,31.15
2018-03-28T10:44:22.760Z,31.50
2018-03-28T10:46:51.007Z,33.25
2018-03-28T10:49:19.325Z,30.15
2018-03-28T10:51:47.570Z,32.13
2018-03-28T10:54:15.821Z,32.60
2018-03-28T10:56:44.844Z,32.88
2018-03-28T10:59:13.088Z,33.30
2018-03-28T11:01:42.131Z,35.83
2018-03-28T11:04:10.397Z,31.17
2018-03-28T11:06:38.655Z,32.35
2018-03-28T11:09:06.912Z,35.63
2018-03-28T11:11:35.917Z,32.03
2018-03-28T11:14:04.169Z,35.05
2018-03-28T11:16:33.187Z,35.30
2018-03-28T11:19:01.459Z,33.95
2018-03-28T11:21:29.723Z,34.47
2018-03-28T11:23:58.742Z,32.63
2018-03-28T11:26:26.980Z,34.83
2018-03-28T11:28:55.989Z,35.40
2018-03-28T11:31:24.237Z,36.22
2018-03-28T11:33:52.472Z,33.05
2018-03-28T11:36:20.729Z,33.75
2018-03-28T11:38:48.972Z,34.53
2018-03-28T11:41:17.995Z,32.42
2018-03-28T11:43:46.246Z,30.37
2018-03-28T11:46:15.373Z,31.65
2018-03-28T11:48:43.622Z,31.85
2018-03-28T11:51:12.642Z,30.15
2018-03-28T11:53:40.897Z,31.50
2018-03-28T11:56:09.138Z,28.48
2018-03-28T11:58:37.379Z,27.42
2018-03-28T12:01:05.625Z,28.27
2018-03-28T12:03:33.890Z,26.48
2018-03-28T12:06:02.136Z,27.17
2018-03-28T12:08:30.393Z,29.67
2018-03-28T12:10:58.637Z,28.87
2018-03-28T12:13:26.893Z,27.73
2018-03-28T12:15:55.138Z,27.40
2018-03-28T12:18:23.381Z,28.33
2018-03-28T12:20:51.633Z,31.10
2018-03-28T12:23:27.616Z,29.25
2018-03-28T12:25:55.862Z,27.92
2018-03-28T12:28:26.914Z,26.50
2018-03-28T12:30:55.163Z,29.23
2018-03-28T12:33:23.461Z,29.55
2018-03-28T12:35:51.740Z,30.30
2018-03-28T12:38:20.056Z,31.15
2018-03-28T12:40:48.290Z,29.30
2018-03-28T12:43:16.560Z,30.70
2018-03-28T12:45:44.827Z,30.27
2018-03-28T12:48:13.085Z,30.08
2018-03-28T12:50:42.095Z,30.37
2018-03-28T12:53:10.345Z,31.77
2018-03-28T12:55:39.395Z,30.20
2018-03-28T12:58:07.640Z,29.20
2018-03-28T13:00:35.916Z,29.87
2018-03-28T13:03:04.195Z,28.92
2018-03-28T13:05:32.483Z,30.48
2018-03-28T13:08:00.887Z,33.40
2018-03-28T13:10:29.144Z,32.90
2018-03-28T13:12:57.513Z,34.92
2018-03-28T13:15:25.787Z,32.60
2018-03-28T13:17:54.051Z,34.25
2018-03-28T13:20:22.327Z,35.38
2018-03-28T13:22:50.564Z,32.67
2018-03-28T13:25:19.573Z,35.67
2018-03-28T13:27:47.807Z,35.92
2018-03-28T13:30:16.048Z,36.80
2018-03-28T13:32:44.284Z,39.65
2018-03-28T13:35:13.319Z,37.55
2018-03-28T13:37:41.567Z,38.33
2018-03-28T13:40:09.799Z,37.58
2018-03-28T13:42:38.050Z,38.08
2018-03-28T13:45:06.313Z,37.60
2018-03-28T13:47:34.580Z,38.40
2018-03-28T13:50:02.819Z,37.75
2018-03-28T13:52:31.849Z,40.88
2018-03-28T13:55:00.094Z,42.60
2018-03-28T13:57:29.112Z,39.72
2018-03-28T13:59:57.410Z,38.80
2018-03-28T14:02:25.671Z,38.50
2018-03-28T14:04:53.896Z,40.35
2018-03-28T14:07:22.149Z,41.63
2018-03-28T14:09:50.399Z,41.85
2018-03-28T14:12:18.677Z,40.58
2018-03-28T14:14:46.922Z,39.60
2018-03-28T14:17:15.951Z,40.60
2018-03-28T14:19:44.215Z,44.08
2018-03-28T14:22:15.838Z,43.87
2018-03-28T14:24:44.066Z,38.70
2018-03-28T14:27:12.316Z,39.45
2018-03-28T14:29:40.595Z,43.55
2018-03-28T14:32:09.137Z,43.45
2018-03-28T14:34:37.592Z,45.72
2018-03-28T14:37:05.833Z,49.25
2018-03-28T14:39:34.085Z,47.45
2018-03-28T14:42:02.333Z,48.47
2018-03-28T14:44:31.379Z,51.50
2018-03-28T14:46:59.625Z,50.17
2018-03-28T14:49:27.872Z,47.58
2018-03-28T14:51:56.456Z,47.40
2018-03-28T14:54:24.835Z,53.38
2018-03-28T14:56:53.850Z,53.53
2018-03-28T14:59:22.155Z,54.22
2018-03-28T15:01:50.404Z,55.55
2018-03-28T15:04:18.656Z,56.63
2018-03-28T15:06:47.692Z,54.00
2018-03-28T15:09:15.937Z,58.40
2018-03-28T15:11:44.967Z,57.58
2018-03-28T15:14:13.221Z,56.72
2018-03-28T15:16:41.512Z,60.17
2018-03-28T15:19:09.837Z,59.63
2018-03-28T15:21:38.063Z,58.33
2018-03-28T15:24:06.322Z,57.10
2018-03-28T15:26:34.627Z,52.55
2018-03-28T15:29:02.968Z,50.90
2018-03-28T15:31:31.225Z,57.08
2018-03-28T15:33:59.458Z,53.58
2018-03-28T15:36:27.702Z,56.72
2018-03-28T15:38:55.952Z,55.08
2018-03-28T15:41:25.137Z,53.87
2018-03-28T15:43:53.369Z,53.58
2018-03-28T15:46:21.642Z,52.62
2018-03-28T15:48:49.880Z,53.63
2018-03-28T15:51:18.912Z,52.00
2018-03-28T15:53:47.159Z,55.53
2018-03-28T15:56:15.462Z,57.95
2018-03-28T15:58:44.087Z,54.90
2018-03-28T16:01:12.421Z,57.10
2018-03-28T16:03:40.702Z,55.55
2018-03-28T16:06:08.967Z,55.75
2018-03-28T16:08:37.291Z,54.50
2018-03-28T16:11:05.671Z,58.63
2018-03-28T16:13:33.992Z,60.22
2018-03-28T16:16:02.272Z,62.00
2018-03-28T16:18:30.543Z,61.47
2018-03-28T16:20:58.820Z,60.65
2018-03-28T16:23:27.078Z,53.78
2018-03-28T16:25:55.373Z,55.00
2018-03-28T16:28:23.631Z,53.92
2018-03-28T16:30:51.927Z,59.10
2018-03-28T16:33:20.197Z,60.17
2018-03-28T16:35:48.453Z,56.58
2018-03-28T16:38:16.763Z,54.47
2018-03-28T16:40:45.026Z,56.08
2018-03-28T16:43:13.325Z,54.53
2018-03-28T16:45:41.554Z,55.17
2018-03-28T16:48:09.824Z,52.05
2018-03-28T16:50:38.842Z,60.88
2018-03-28T16:53:07.092Z,61.80
2018-03-28T16:55:35.362Z,63.58
2018-03-28T16:58:04.403Z,62.30
2018-03-28T17:00:32.645Z,58.60
2018-03-28T17:03:00.905Z,55.22
2018-03-28T17:05:29.917Z,55.47
2018-03-28T17:07:58.218Z,51.90
2018-03-28T17:10:26.469Z,51.25
2018-03-28T17:12:54.756Z,53.92
2018-03-28T17:15:23.037Z,54.00
2018-03-28T17:17:51.308Z,52.80
2018-03-28T17:20:19.696Z,53.25
2018-03-28T17:22:47.960Z,57.53
2018-03-28T17:25:16.232Z,57.55
2018-03-28T17:27:44.483Z,52.62
2018-03-28T17:30:13.492Z,71.40
2018-03-28T17:32:41.785Z,63.65
2018-03-28T17:35:10.052Z,72.15
2018-03-28T17:37:38.301Z,78.93
2018-03-28T17:40:07.320Z,67.87
2018-03-28T17:42:35.606Z,76.45
2018-03-28T17:45:03.877Z,87.53
2018-03-28T17:47:32.178Z,80.47
2018-03-28T17:50:00.420Z,85.18
2018-03-28T17:52:28.703Z,76.53
2018-03-28T17:54:56.948Z,77.37
2018-03-28T17:57:26.529Z,77.10
2018-03-28T17:59:54.803Z,63.60
2018-03-28T18:02:23.048Z,54.47
2018-03-28T18:04:51.293Z,46.40
2018-03-28T18:07:19.586Z,44.67
2018-03-28T18:09:47.856Z,44.28
2018-03-28T18:12:16.137Z,42.58
2018-03-28T18:14:44.460Z,40.97
2018-03-28T18:17:12.698Z,44.40
2018-03-28T18:19:40.943Z,40.85
2018-03-28T18:22:09.346Z,42.38
2018-03-28T18:24:37.592Z,44.72
2018-03-28T18:27:05.832Z,46.42
2018-03-28T18:29:34.108Z,47.50
2018-03-28T18:32:02.440Z,47.90
2018-03-28T18:34:30.817Z,51.33
2018-03-28T18:36:59.141Z,46.45
2018-03-28T18:39:27.364Z,47.38
2018-03-28T18:41:55.618Z,50.95
2018-03-28T18:44:23.866Z,50.08
2018-03-28T18:46:52.122Z,54.97
2018-03-28T18:49:20.469Z,50.45
2018-03-28T18:51:48.727Z,49.83
2018-03-28T18:54:16.977Z,52.00
2018-03-28T18:56:46.018Z,47.47
2018-03-28T18:59:14.405Z,55.78
2018-03-28T19:01:42.677Z,61.72
2018-03-28T19:04:10.959Z,57.45
2018-03-28T19:06:39.523Z,49.30
2018-03-28T19:09:07.768Z,47.45
2018-03-28T19:11:36.784Z,48.65
2018-03-28T19:14:05.041Z,45.08
2018-03-28T19:16:33.394Z,42.78
2018-03-28T19:19:01.616Z,43.13
2018-03-28T19:21:29.878Z,41.03
2018-03-28T19:23:58.112Z,36.95
2018-03-28T19:26:26.385Z,42.75
2018-03-28T19:28:54.721Z,43.80
2018-03-28T19:31:23.002Z,43.47
2018-03-28T19:33:51.274Z,42.90
2018-03-28T19:36:19.561Z,41.05
2018-03-28T19:38:47.810Z,40.80
2018-03-28T19:41:16.056Z,42.67
2018-03-28T19:43:45.137Z,45.80
2018-03-28T19:46:13.348Z,48.75
2018-03-28T19:48:41.997Z,45.42
2018-03-28T19:51:10.268Z,43.28
2018-03-28T19:53:38.506Z,39.55
2018-03-28T19:56:06.745Z,37.70
2018-03-28T19:58:35.765Z,36.40
2018-03-28T20:01:04.013Z,36.45
2018-03-28T20:03:32.362Z,36.47
2018-03-28T20:06:00.577Z,36.10
2018-03-28T20:08:28.917Z,36.17
2018-03-28T20:10:57.467Z,33.58
2018-03-28T20:13:25.783Z,33.10
2018-03-28T20:15:54.033Z,31.60
2018-03-28T20:18:22.349Z,30.65
2018-03-28T20:20:51.426Z,32.83
2018-03-28T20:23:19.700Z,31.15
2018-03-28T20:25:48.178Z,32.13
2018-03-28T20:28:16.663Z,35.65
2018-03-28T20:30:45.106Z,31.30
2018-03-28T20:33:13.355Z,34.28
2018-03-28T20:35:41.599Z,36.38
2018-03-28T20:38:10.695Z,35.63
2018-03-28T20:40:38.952Z,35.55
2018-03-28T20:43:07.195Z,33.03
2018-03-28T20:45:35.441Z,32.15
2018-03-28T20:48:03.686Z,32.90
2018-03-28T20:50:31.928Z,32.38
2018-03-28T20:53:00.188Z,33.45
2018-03-28T20:55:28.505Z,34.55
2018-03-28T20:57:58.321Z,33.13
2018-03-28T21:00:26.767Z,34.42
2018-03-28T21:02:54.991Z,32.85
2018-03-28T21:05:23.999Z,31.42
2018-03-28T21:07:52.305Z,31.60
2018-03-28T21:10:20.581Z,27.98
2018-03-28T21:12:48.860Z,25.77
2018-03-28T21:15:17.113Z,26.25
2018-03-28T21:17:45.409Z,26.17
2018-03-28T21:20:13.640Z,26.45
2018-03-28T21:22:42.708Z,24.92
2018-03-28T21:25:10.909Z,25.48
2018-03-28T21:27:39.931Z,22.55
2018-03-28T21:30:08.168Z,19.33
2018-03-28T21:32:37.204Z,19.37
2018-03-28T21:35:05.439Z,18.42
2018-03-28T21:37:34.476Z,16.45
2018-03-28T21:40:03.603Z,17.85
2018-03-28T21:42:31.849Z,16.85
2018-03-28T21:45:00.116Z,16.48
2018-03-28T21:47:28.400Z,16.08
2018-03-28T21:49:56.663Z,16.25
2018-03-28T21:52:24.940Z,15.32
2018-03-28T21:54:53.199Z,15.18
2018-03-28T21:57:22.265Z,15.88
2018-03-28T21:59:50.492Z,15.63
2018-03-28T22:02:18.733Z,16.40
2018-03-28T22:04:47.739Z,16.25
2018-03-28T22:07:16.041Z,16.62
2018-03-28T22:09:44.303Z,16.50
2018-03-28T22:12:12.583Z,15.02
2018-03-28T22:14:40.831Z,15.82
2018-03-28T22:17:09.866Z,15.23
2018-03-28T22:19:38.100Z,16.37
2018-03-28T22:22:07.113Z,15.07
2018-03-28T22:24:35.354Z,15.60
2018-03-28T22:27:04.363Z,16.25
2018-03-28T22:29:32.595Z,16.05
2018-03-28T22:32:00.835Z,17.15
2018-03-28T22:34:29.087Z,16.08
2018-03-28T22:36:57.343Z,15.90
2018-03-28T22:39:26.350Z,15.93
2018-03-28T22:41:54.657Z,16.48
2018-03-28T22:44:22.897Z,15.48
2018-03-28T22:46:51.907Z,14.52
2018-03-28T22:49:20.141Z,13.93
2018-03-28T22:51:49.900Z,14.20
2018-03-28T22:54:18.141Z,14.02
2018-03-28T22:56:47.168Z,14.77
2018-03-28T22:59:15.457Z,14.43
2018-03-28T23:01:43.697Z,15.07
2018-03-28T23:04:11.941Z,14.85
2018-03-28T23:06:40.269Z,14.32
2018-03-28T23:09:08.516Z,14.10
2018-03-28T23:11:37.539Z,15.15
2018-03-28T23:14:05.779Z,15.13
2018-03-28T23:16:34.795Z,14.00
2018-03-28T23:19:03.055Z,9.35
2018-03-28T23:21:32.068Z,9.85
2018-03-28T23:24:00.348Z,8.25
2018-03-28T23:26:28.580Z,7.35
2018-03-28T23:28:56.897Z,6.78
2018-03-28T23:31:25.177Z,7.20
2018-03-28T23:33:53.466Z,8.20
2018-03-28T23:36:21.704Z,8.07
2018-03-28T23:38:50.718Z,7.82
2018-03-28T23:41:18.966Z,7.82
2018-03-28T23:43:47.981Z,7.20
2018-03-28T23:46:16.208Z,7.28
2018-03-28T23:48:44.540Z,7.50
2018-03-28T23:51:12.772Z,6.65
2018-03-28T23:53:41.781Z,6.80
2018-03-28T23:56:10.785Z,6.57
2018-03-28T23:58:39.020Z,7.15
